sensor_id;sensor_type;location;lat;lon;timestamp;temperature;humidity
41220;DHT22;26951;47.338;9.196;2022-09-17T00:02:32;9.50;72.50
41220;DHT22;26951;47.338;9.196;2022-09-17T00:05:16;9.50;73.50
41220;DHT22;26951;47.338;9.196;2022-09-17T00:08:01;9.50;72.90
41220;DHT22;26951;47.338;9.196;2022-09-17T00:10:45;9.50;72.90
41220;DHT22;26951;47.338;9.196;2022-09-17T00:13:29;9.50;72.90
41220;DHT22;26951;47.338;9.196;2022-09-17T00:16:30;9.50;72.90
41220;DHT22;26951;47.338;9.196;2022-09-17T00:19:19;9.40;73.30
41220;DHT22;26951;47.338;9.196;2022-09-17T00:22:04;9.50;74.00
41220;DHT22;26951;47.338;9.196;2022-09-17T00:24:48;9.50;72.10
41220;DHT22;26951;47.338;9.196;2022-09-17T00:27:32;9.40;71.30
41220;DHT22;26951;47.338;9.196;2022-09-17T00:30:16;9.40;71.70
41220;DHT22;26951;47.338;9.196;2022-09-17T00:33:00;9.40;72.30
41220;DHT22;26951;47.338;9.196;2022-09-17T00:35:59;9.40;72.60
41220;DHT22;26951;47.338;9.196;2022-09-17T00:38:48;9.40;72.70
41220;DHT22;26951;47.338;9.196;2022-09-17T00:41:34;9.40;72.30
41220;DHT22;26951;47.338;9.196;2022-09-17T00:44:55;9.30;72.80
41220;DHT22;26951;47.338;9.196;2022-09-17T00:47:45;9.30;73.20
41220;DHT22;26951;47.338;9.196;2022-09-17T00:50:39;9.40;73.80
41220;DHT22;26951;47.338;9.196;2022-09-17T00:53:24;9.40;72.90
41220;DHT22;26951;47.338;9.196;2022-09-17T00:56:15;9.40;72.10
41220;DHT22;26951;47.338;9.196;2022-09-17T00:59:02;9.40;73.00
41220;DHT22;26951;47.338;9.196;2022-09-17T01:02:03;9.40;73.50
41220;DHT22;26951;47.338;9.196;2022-09-17T01:05:07;9.40;73.80
41220;DHT22;26951;47.338;9.196;2022-09-17T01:08:12;9.40;73.30
41220;DHT22;26951;47.338;9.196;2022-09-17T01:14:44;9.30;73.50
41220;DHT22;26951;47.338;9.196;2022-09-17T01:20:12;9.30;70.70
41220;DHT22;26951;47.338;9.196;2022-09-17T01:23:20;9.20;70.20
41220;DHT22;26951;47.338;9.196;2022-09-17T01:29:34;9.10;72.70
41220;DHT22;26951;47.338;9.196;2022-09-17T01:38:12;9.10;71.50
41220;DHT22;26951;47.338;9.196;2022-09-17T01:41:36;9.00;72.00
41220;DHT22;26951;47.338;9.196;2022-09-17T01:44:34;9.00;71.60
41220;DHT22;26951;47.338;9.196;2022-09-17T01:47:23;9.00;73.40
41220;DHT22;26951;47.338;9.196;2022-09-17T01:50:17;9.00;73.30
41220;DHT22;26951;47.338;9.196;2022-09-17T01:53:04;9.00;72.80
41220;DHT22;26951;47.338;9.196;2022-09-17T01:55:50;9.00;73.70
41220;DHT22;26951;47.338;9.196;2022-09-17T01:58:47;9.00;74.40
41220;DHT22;26951;47.338;9.196;2022-09-17T02:01:34;9.00;74.00
41220;DHT22;26951;47.338;9.196;2022-09-17T02:04:48;9.00;73.50
41220;DHT22;26951;47.338;9.196;2022-09-17T02:07:41;9.00;73.40
41220;DHT22;26951;47.338;9.196;2022-09-17T02:10:29;9.00;73.30
41220;DHT22;26951;47.338;9.196;2022-09-17T02:13:26;8.90;71.40
41220;DHT22;26951;47.338;9.196;2022-09-17T02:16:17;8.80;72.20
41220;DHT22;26951;47.338;9.196;2022-09-17T02:19:12;8.70;74.10
41220;DHT22;26951;47.338;9.196;2022-09-17T02:28:16;8.60;74.70
41220;DHT22;26951;47.338;9.196;2022-09-17T02:31:03;8.60;76.30
41220;DHT22;26951;47.338;9.196;2022-09-17T02:33:49;8.60;76.60
41220;DHT22;26951;47.338;9.196;2022-09-17T02:36:34;8.60;76.20
41220;DHT22;26951;47.338;9.196;2022-09-17T02:39:19;8.70;76.80
41220;DHT22;26951;47.338;9.196;2022-09-17T02:48:16;8.80;76.60
41220;DHT22;26951;47.338;9.196;2022-09-17T02:54:29;8.70;73.90
41220;DHT22;26951;47.338;9.196;2022-09-17T02:57:53;8.60;74.50
41220;DHT22;26951;47.338;9.196;2022-09-17T03:00:39;8.50;74.10
41220;DHT22;26951;47.338;9.196;2022-09-17T03:03:36;8.50;73.10
41220;DHT22;26951;47.338;9.196;2022-09-17T03:06:22;8.40;75.00
41220;DHT22;26951;47.338;9.196;2022-09-17T03:09:07;8.40;75.20
41220;DHT22;26951;47.338;9.196;2022-09-17T03:11:51;8.40;76.30
41220;DHT22;26951;47.338;9.196;2022-09-17T03:14:35;8.40;74.50
41220;DHT22;26951;47.338;9.196;2022-09-17T03:17:19;8.50;74.90
41220;DHT22;26951;47.338;9.196;2022-09-17T03:20:04;8.50;75.20
41220;DHT22;26951;47.338;9.196;2022-09-17T03:22:50;8.40;75.40
41220;DHT22;26951;47.338;9.196;2022-09-17T03:25:34;8.30;74.90
41220;DHT22;26951;47.338;9.196;2022-09-17T03:28:18;8.30;74.70
41220;DHT22;26951;47.338;9.196;2022-09-17T03:31:02;8.30;75.20
41220;DHT22;26951;47.338;9.196;2022-09-17T03:33:48;8.30;76.50
41220;DHT22;26951;47.338;9.196;2022-09-17T03:36:33;8.30;76.60
41220;DHT22;26951;47.338;9.196;2022-09-17T03:39:17;8.40;76.70
41220;DHT22;26951;47.338;9.196;2022-09-17T03:42:01;8.40;75.80
41220;DHT22;26951;47.338;9.196;2022-09-17T03:44:45;8.40;75.40
41220;DHT22;26951;47.338;9.196;2022-09-17T03:47:30;8.40;75.60
41220;DHT22;26951;47.338;9.196;2022-09-17T03:50:14;8.40;76.80
41220;DHT22;26951;47.338;9.196;2022-09-17T03:52:58;8.40;77.70
41220;DHT22;26951;47.338;9.196;2022-09-17T03:55:42;8.40;77.50
41220;DHT22;26951;47.338;9.196;2022-09-17T03:58:28;8.40;76.70
41220;DHT22;26951;47.338;9.196;2022-09-17T04:01:13;8.40;76.20
41220;DHT22;26951;47.338;9.196;2022-09-17T04:03:57;8.30;75.70
41220;DHT22;26951;47.338;9.196;2022-09-17T04:06:42;8.30;75.90
41220;DHT22;26951;47.338;9.196;2022-09-17T04:09:26;8.40;76.20
41220;DHT22;26951;47.338;9.196;2022-09-17T04:12:10;8.30;76.00
41220;DHT22;26951;47.338;9.196;2022-09-17T04:14:54;8.30;76.00
41220;DHT22;26951;47.338;9.196;2022-09-17T04:17:38;8.30;76.80
41220;DHT22;26951;47.338;9.196;2022-09-17T04:20:23;8.30;76.00
41220;DHT22;26951;47.338;9.196;2022-09-17T04:23:09;8.30;76.50
41220;DHT22;26951;47.338;9.196;2022-09-17T04:25:53;8.30;77.00
41220;DHT22;26951;47.338;9.196;2022-09-17T04:28:37;8.30;76.90
41220;DHT22;26951;47.338;9.196;2022-09-17T04:31:21;8.30;75.30
41220;DHT22;26951;47.338;9.196;2022-09-17T04:34:07;8.30;75.10
41220;DHT22;26951;47.338;9.196;2022-09-17T04:36:52;8.20;75.60
41220;DHT22;26951;47.338;9.196;2022-09-17T04:39:36;8.20;75.10
41220;DHT22;26951;47.338;9.196;2022-09-17T04:42:21;8.20;74.10
41220;DHT22;26951;47.338;9.196;2022-09-17T04:45:05;8.20;75.60
41220;DHT22;26951;47.338;9.196;2022-09-17T04:47:50;8.20;75.10
41220;DHT22;26951;47.338;9.196;2022-09-17T04:50:34;8.20;73.50
41220;DHT22;26951;47.338;9.196;2022-09-17T04:53:18;8.10;73.20
41220;DHT22;26951;47.338;9.196;2022-09-17T04:56:03;8.10;73.60
41220;DHT22;26951;47.338;9.196;2022-09-17T04:58:47;8.00;72.30
41220;DHT22;26951;47.338;9.196;2022-09-17T05:01:31;8.00;73.30
41220;DHT22;26951;47.338;9.196;2022-09-17T05:04:15;7.90;74.30
41220;DHT22;26951;47.338;9.196;2022-09-17T05:07:00;7.90;73.80
41220;DHT22;26951;47.338;9.196;2022-09-17T05:09:44;7.90;73.80
41220;DHT22;26951;47.338;9.196;2022-09-17T05:12:28;7.90;72.90
41220;DHT22;26951;47.338;9.196;2022-09-17T05:15:12;7.90;73.50
41220;DHT22;26951;47.338;9.196;2022-09-17T05:17:56;7.90;74.00
41220;DHT22;26951;47.338;9.196;2022-09-17T05:20:41;7.90;73.40
41220;DHT22;26951;47.338;9.196;2022-09-17T05:23:26;7.90;73.00
41220;DHT22;26951;47.338;9.196;2022-09-17T05:26:10;7.90;71.00
41220;DHT22;26951;47.338;9.196;2022-09-17T05:28:54;7.90;70.40
41220;DHT22;26951;47.338;9.196;2022-09-17T05:31:39;7.80;71.40
41220;DHT22;26951;47.338;9.196;2022-09-17T05:34:22;7.80;72.20
41220;DHT22;26951;47.338;9.196;2022-09-17T05:37:10;7.80;73.70
41220;DHT22;26951;47.338;9.196;2022-09-17T05:39:54;7.80;73.20
41220;DHT22;26951;47.338;9.196;2022-09-17T05:42:38;7.80;73.70
41220;DHT22;26951;47.338;9.196;2022-09-17T05:45:23;7.80;73.20
41220;DHT22;26951;47.338;9.196;2022-09-17T05:48:10;7.80;73.70
41220;DHT22;26951;47.338;9.196;2022-09-17T05:50:54;7.80;73.70
41220;DHT22;26951;47.338;9.196;2022-09-17T05:53:38;7.90;72.00
41220;DHT22;26951;47.338;9.196;2022-09-17T05:56:23;7.90;71.50
41220;DHT22;26951;47.338;9.196;2022-09-17T05:59:07;7.90;72.00
41220;DHT22;26951;47.338;9.196;2022-09-17T06:01:51;7.80;72.30
41220;DHT22;26951;47.338;9.196;2022-09-17T06:04:35;7.80;71.10
41220;DHT22;26951;47.338;9.196;2022-09-17T06:07:19;7.90;70.50
41220;DHT22;26951;47.338;9.196;2022-09-17T06:10:05;7.90;70.90
41220;DHT22;26951;47.338;9.196;2022-09-17T06:12:57;7.90;70.60
41220;DHT22;26951;47.338;9.196;2022-09-17T06:15:47;7.90;71.30
41220;DHT22;26951;47.338;9.196;2022-09-17T06:18:32;7.90;71.70
41220;DHT22;26951;47.338;9.196;2022-09-17T06:21:16;8.00;72.90
41220;DHT22;26951;47.338;9.196;2022-09-17T06:24:04;8.00;73.40
41220;DHT22;26951;47.338;9.196;2022-09-17T06:26:50;8.10;74.60
41220;DHT22;26951;47.338;9.196;2022-09-17T06:29:34;8.10;74.00
41220;DHT22;26951;47.338;9.196;2022-09-17T06:32:18;8.20;74.40
41220;DHT22;26951;47.338;9.196;2022-09-17T06:35:03;8.20;74.00
41220;DHT22;26951;47.338;9.196;2022-09-17T06:37:47;8.30;74.70
41220;DHT22;26951;47.338;9.196;2022-09-17T06:40:31;8.30;74.90
41220;DHT22;26951;47.338;9.196;2022-09-17T06:43:16;8.40;75.00
41220;DHT22;26951;47.338;9.196;2022-09-17T06:46:02;8.50;74.60
41220;DHT22;26951;47.338;9.196;2022-09-17T06:48:47;8.50;75.40
41220;DHT22;26951;47.338;9.196;2022-09-17T06:51:31;8.60;75.10
41220;DHT22;26951;47.338;9.196;2022-09-17T06:54:15;8.60;74.50
41220;DHT22;26951;47.338;9.196;2022-09-17T06:56:59;8.60;72.60
41220;DHT22;26951;47.338;9.196;2022-09-17T06:59:43;8.70;72.10
41220;DHT22;26951;47.338;9.196;2022-09-17T07:02:28;8.60;69.10
41220;DHT22;26951;47.338;9.196;2022-09-17T07:05:12;8.60;69.10
41220;DHT22;26951;47.338;9.196;2022-09-17T07:07:56;8.60;69.60
41220;DHT22;26951;47.338;9.196;2022-09-17T07:10:40;8.60;66.90
41220;DHT22;26951;47.338;9.196;2022-09-17T07:13:24;8.60;67.70
41220;DHT22;26951;47.338;9.196;2022-09-17T07:16:09;8.50;64.20
41220;DHT22;26951;47.338;9.196;2022-09-17T07:18:53;8.50;65.40
41220;DHT22;26951;47.338;9.196;2022-09-17T07:21:37;8.40;65.60
41220;DHT22;26951;47.338;9.196;2022-09-17T07:24:22;8.40;66.10
41220;DHT22;26951;47.338;9.196;2022-09-17T07:27:06;8.40;65.90
41220;DHT22;26951;47.338;9.196;2022-09-17T07:29:50;8.30;65.80
41220;DHT22;26951;47.338;9.196;2022-09-17T07:32:34;8.30;67.40
41220;DHT22;26951;47.338;9.196;2022-09-17T07:35:19;8.30;67.60
41220;DHT22;26951;47.338;9.196;2022-09-17T07:38:03;8.30;68.90
41220;DHT22;26951;47.338;9.196;2022-09-17T07:40:55;8.30;69.10
41220;DHT22;26951;47.338;9.196;2022-09-17T07:43:42;8.30;66.70
41220;DHT22;26951;47.338;9.196;2022-09-17T07:46:26;8.30;68.20
41220;DHT22;26951;47.338;9.196;2022-09-17T07:49:11;8.20;67.20
41220;DHT22;26951;47.338;9.196;2022-09-17T07:51:55;8.10;68.10
41220;DHT22;26951;47.338;9.196;2022-09-17T07:54:39;8.20;68.90
41220;DHT22;26951;47.338;9.196;2022-09-17T07:57:23;8.10;68.50
41220;DHT22;26951;47.338;9.196;2022-09-17T08:00:08;8.10;68.90
41220;DHT22;26951;47.338;9.196;2022-09-17T08:02:53;8.00;68.40
41220;DHT22;26951;47.338;9.196;2022-09-17T08:05:38;8.00;68.70
41220;DHT22;26951;47.338;9.196;2022-09-17T08:08:22;7.90;68.80
41220;DHT22;26951;47.338;9.196;2022-09-17T08:11:09;7.80;68.50
41220;DHT22;26951;47.338;9.196;2022-09-17T08:13:54;7.80;69.40
41220;DHT22;26951;47.338;9.196;2022-09-17T08:16:38;7.90;69.80
41220;DHT22;26951;47.338;9.196;2022-09-17T08:19:22;7.90;71.60
41220;DHT22;26951;47.338;9.196;2022-09-17T08:22:07;8.00;73.20
41220;DHT22;26951;47.338;9.196;2022-09-17T08:24:51;8.10;74.00
41220;DHT22;26951;47.338;9.196;2022-09-17T08:27:36;8.20;75.70
41220;DHT22;26951;47.338;9.196;2022-09-17T08:30:22;8.20;73.30
41220;DHT22;26951;47.338;9.196;2022-09-17T08:33:06;8.30;74.20
41220;DHT22;26951;47.338;9.196;2022-09-17T08:35:55;8.40;72.90
41220;DHT22;26951;47.338;9.196;2022-09-17T08:38:42;8.40;74.30
41220;DHT22;26951;47.338;9.196;2022-09-17T08:44:43;8.60;74.10
41220;DHT22;26951;47.338;9.196;2022-09-17T08:47:33;8.80;74.00
41220;DHT22;26951;47.338;9.196;2022-09-17T08:50:25;9.00;73.30
41220;DHT22;26951;47.338;9.196;2022-09-17T08:56:18;9.30;68.60
41220;DHT22;26951;47.338;9.196;2022-09-17T08:59:34;9.40;70.50
41220;DHT22;26951;47.338;9.196;2022-09-17T09:05:27;9.60;68.50
41220;DHT22;26951;47.338;9.196;2022-09-17T09:08:27;9.70;64.20
41220;DHT22;26951;47.338;9.196;2022-09-17T09:11:21;9.70;65.90
41220;DHT22;26951;47.338;9.196;2022-09-17T09:16:54;9.90;66.70
41220;DHT22;26951;47.338;9.196;2022-09-17T09:19:44;9.90;66.20
41220;DHT22;26951;47.338;9.196;2022-09-17T09:22:48;9.90;62.70
41220;DHT22;26951;47.338;9.196;2022-09-17T09:25:40;9.90;64.90
41220;DHT22;26951;47.338;9.196;2022-09-17T09:31:56;9.70;63.20
41220;DHT22;26951;47.338;9.196;2022-09-17T09:34:43;9.50;62.80
41220;DHT22;26951;47.338;9.196;2022-09-17T09:37:32;9.40;63.90
41220;DHT22;26951;47.338;9.196;2022-09-17T09:40:27;9.30;64.30
41220;DHT22;26951;47.338;9.196;2022-09-17T09:46:44;9.30;69.50
41220;DHT22;26951;47.338;9.196;2022-09-17T09:52:59;9.70;74.40
41220;DHT22;26951;47.338;9.196;2022-09-17T09:55:58;9.80;71.50
41220;DHT22;26951;47.338;9.196;2022-09-17T09:58:44;9.90;71.40
41220;DHT22;26951;47.338;9.196;2022-09-17T10:01:31;10.10;71.60
41220;DHT22;26951;47.338;9.196;2022-09-17T10:07:07;10.30;66.30
41220;DHT22;26951;47.338;9.196;2022-09-17T10:10:07;10.40;65.90
41220;DHT22;26951;47.338;9.196;2022-09-17T10:13:05;10.50;65.10
41220;DHT22;26951;47.338;9.196;2022-09-17T10:15:50;10.70;67.80
41220;DHT22;26951;47.338;9.196;2022-09-17T10:18:35;10.90;72.20
41220;DHT22;26951;47.338;9.196;2022-09-17T10:21:34;11.20;69.00
41220;DHT22;26951;47.338;9.196;2022-09-17T10:24:27;11.30;66.40
41220;DHT22;26951;47.338;9.196;2022-09-17T10:27:16;11.60;67.00
41220;DHT22;26951;47.338;9.196;2022-09-17T10:36:05;11.70;59.00
41220;DHT22;26951;47.338;9.196;2022-09-17T10:38:49;11.70;61.20
41220;DHT22;26951;47.338;9.196;2022-09-17T10:41:34;11.80;65.70
41220;DHT22;26951;47.338;9.196;2022-09-17T10:44:21;12.00;63.30
41220;DHT22;26951;47.338;9.196;2022-09-17T10:47:20;12.10;60.70
41220;DHT22;26951;47.338;9.196;2022-09-17T10:50:20;12.20;59.60
41220;DHT22;26951;47.338;9.196;2022-09-17T10:53:17;12.20;58.30
41220;DHT22;26951;47.338;9.196;2022-09-17T10:56:13;12.40;58.80
41220;DHT22;26951;47.338;9.196;2022-09-17T10:59:15;12.50;58.70
41220;DHT22;26951;47.338;9.196;2022-09-17T11:02:25;12.70;58.90
41220;DHT22;26951;47.338;9.196;2022-09-17T11:12:18;12.80;54.30
41220;DHT22;26951;47.338;9.196;2022-09-17T11:15:25;12.70;54.50
41220;DHT22;26951;47.338;9.196;2022-09-17T11:21:39;12.40;51.40
41220;DHT22;26951;47.338;9.196;2022-09-17T11:24:41;12.40;53.40
41220;DHT22;26951;47.338;9.196;2022-09-17T11:28:03;12.50;54.60
41220;DHT22;26951;47.338;9.196;2022-09-17T11:37:18;12.60;51.00
41220;DHT22;26951;47.338;9.196;2022-09-17T11:40:12;12.50;50.50
41220;DHT22;26951;47.338;9.196;2022-09-17T11:43:06;12.40;52.40
41220;DHT22;26951;47.338;9.196;2022-09-17T11:52:17;12.10;52.90
41220;DHT22;26951;47.338;9.196;2022-09-17T11:58:16;11.30;54.70
41220;DHT22;26951;47.338;9.196;2022-09-17T12:01:10;11.00;55.00
41220;DHT22;26951;47.338;9.196;2022-09-17T12:07:32;10.60;57.80
41220;DHT22;26951;47.338;9.196;2022-09-17T12:10:36;10.50;58.10
41220;DHT22;26951;47.338;9.196;2022-09-17T12:16:20;10.50;60.70
41220;DHT22;26951;47.338;9.196;2022-09-17T12:19:34;10.50;62.50
41220;DHT22;26951;47.338;9.196;2022-09-17T12:22:25;10.50;60.80
41220;DHT22;26951;47.338;9.196;2022-09-17T12:25:12;10.60;62.30
41220;DHT22;26951;47.338;9.196;2022-09-17T12:28:07;10.60;61.70
41220;DHT22;26951;47.338;9.196;2022-09-17T12:31:19;10.60;60.50
41220;DHT22;26951;47.338;9.196;2022-09-17T12:35:01;10.50;60.50
41220;DHT22;26951;47.338;9.196;2022-09-17T12:37:42;10.40;58.10
41220;DHT22;26951;47.338;9.196;2022-09-17T12:59:07;10.20;62.30
41220;DHT22;26951;47.338;9.196;2022-09-17T13:01:59;10.20;62.70
41220;DHT22;26951;47.338;9.196;2022-09-17T13:08:12;10.20;60.20
41220;DHT22;26951;47.338;9.196;2022-09-17T13:11:23;10.30;61.20
41220;DHT22;26951;47.338;9.196;2022-09-17T13:18:09;10.40;64.10
41220;DHT22;26951;47.338;9.196;2022-09-17T13:21:05;10.40;60.70
41220;DHT22;26951;47.338;9.196;2022-09-17T13:23:49;10.40;60.70
41220;DHT22;26951;47.338;9.196;2022-09-17T13:26:36;10.30;60.60
41220;DHT22;26951;47.338;9.196;2022-09-17T13:32:41;10.10;60.70
41220;DHT22;26951;47.338;9.196;2022-09-17T13:38:10;10.10;60.80
41220;DHT22;26951;47.338;9.196;2022-09-17T13:41:17;10.00;60.30
41220;DHT22;26951;47.338;9.196;2022-09-17T13:44:04;9.90;63.00
41220;DHT22;26951;47.338;9.196;2022-09-17T13:46:50;9.80;62.40
41220;DHT22;26951;47.338;9.196;2022-09-17T13:49:43;9.70;63.60
41220;DHT22;26951;47.338;9.196;2022-09-17T13:52:32;9.70;64.50
41220;DHT22;26951;47.338;9.196;2022-09-17T13:55:43;9.60;65.60
41220;DHT22;26951;47.338;9.196;2022-09-17T13:58:34;9.60;66.80
41220;DHT22;26951;47.338;9.196;2022-09-17T14:07:33;9.60;69.00
41220;DHT22;26951;47.338;9.196;2022-09-17T14:13:25;9.70;69.30
41220;DHT22;26951;47.338;9.196;2022-09-17T14:19:43;10.00;69.60
41220;DHT22;26951;47.338;9.196;2022-09-17T14:22:32;10.10;66.30
41220;DHT22;26951;47.338;9.196;2022-09-17T14:25:18;10.10;66.40
41220;DHT22;26951;47.338;9.196;2022-09-17T14:28:20;10.30;67.00
41220;DHT22;26951;47.338;9.196;2022-09-17T14:31:16;10.40;68.40
41220;DHT22;26951;47.338;9.196;2022-09-17T14:34:04;10.40;64.20
41220;DHT22;26951;47.338;9.196;2022-09-17T14:36:50;10.50;65.60
41220;DHT22;26951;47.338;9.196;2022-09-17T14:39:35;10.50;62.30
41220;DHT22;26951;47.338;9.196;2022-09-17T14:42:32;10.50;64.30
41220;DHT22;26951;47.338;9.196;2022-09-17T14:45:32;10.50;64.00
41220;DHT22;26951;47.338;9.196;2022-09-17T14:48:27;10.50;64.50
41220;DHT22;26951;47.338;9.196;2022-09-17T14:56:53;11.00;65.70
41220;DHT22;26951;47.338;9.196;2022-09-17T14:59:53;11.00;63.30
41220;DHT22;26951;47.338;9.196;2022-09-17T15:02:39;11.00;60.80
41220;DHT22;26951;47.338;9.196;2022-09-17T15:05:35;11.00;61.30
41220;DHT22;26951;47.338;9.196;2022-09-17T15:08:26;11.00;61.00
41220;DHT22;26951;47.338;9.196;2022-09-17T15:11:12;11.00;61.60
41220;DHT22;26951;47.338;9.196;2022-09-17T15:13:57;11.00;61.60
41220;DHT22;26951;47.338;9.196;2022-09-17T15:16:48;11.00;60.80
41220;DHT22;26951;47.338;9.196;2022-09-17T15:19:36;11.00;61.30
41220;DHT22;26951;47.338;9.196;2022-09-17T15:22:25;11.00;60.70
41220;DHT22;26951;47.338;9.196;2022-09-17T15:25:17;11.00;60.10
41220;DHT22;26951;47.338;9.196;2022-09-17T15:31:19;10.90;61.50
41220;DHT22;26951;47.338;9.196;2022-09-17T15:34:03;10.90;61.50
41220;DHT22;26951;47.338;9.196;2022-09-17T15:37:05;10.80;59.10
41220;DHT22;26951;47.338;9.196;2022-09-17T15:39:51;10.70;60.00
41220;DHT22;26951;47.338;9.196;2022-09-17T15:42:35;10.70;59.80
41220;DHT22;26951;47.338;9.196;2022-09-17T15:45:26;10.60;60.30
41220;DHT22;26951;47.338;9.196;2022-09-17T15:51:26;10.60;61.20
41220;DHT22;26951;47.338;9.196;2022-09-17T15:54:28;10.50;60.80
41220;DHT22;26951;47.338;9.196;2022-09-17T15:57:14;10.50;60.80
41220;DHT22;26951;47.338;9.196;2022-09-17T16:00:11;10.40;58.50
41220;DHT22;26951;47.338;9.196;2022-09-17T16:02:57;10.30;58.30
41220;DHT22;26951;47.338;9.196;2022-09-17T16:05:46;10.20;58.10
41220;DHT22;26951;47.338;9.196;2022-09-17T16:08:34;10.20;57.60
41220;DHT22;26951;47.338;9.196;2022-09-17T16:11:19;10.10;58.30
41220;DHT22;26951;47.338;9.196;2022-09-17T16:14:04;10.20;58.20
41220;DHT22;26951;47.338;9.196;2022-09-17T16:16:48;10.20;56.50
41220;DHT22;26951;47.338;9.196;2022-09-17T16:19:32;10.20;58.30
41220;DHT22;26951;47.338;9.196;2022-09-17T16:22:16;10.30;58.30
41220;DHT22;26951;47.338;9.196;2022-09-17T16:25:01;10.40;57.50
41220;DHT22;26951;47.338;9.196;2022-09-17T16:27:51;10.40;57.20
41220;DHT22;26951;47.338;9.196;2022-09-17T16:30:39;10.30;56.50
41220;DHT22;26951;47.338;9.196;2022-09-17T16:33:24;10.40;57.50
41220;DHT22;26951;47.338;9.196;2022-09-17T16:36:11;10.30;58.20
41220;DHT22;26951;47.338;9.196;2022-09-17T16:38:54;10.30;58.30
41220;DHT22;26951;47.338;9.196;2022-09-17T16:41:40;10.30;58.40
41220;DHT22;26951;47.338;9.196;2022-09-17T16:44:24;10.20;58.70
41220;DHT22;26951;47.338;9.196;2022-09-17T16:47:08;10.10;59.20
41220;DHT22;26951;47.338;9.196;2022-09-17T16:49:52;10.00;60.00
41220;DHT22;26951;47.338;9.196;2022-09-17T16:52:36;9.90;60.70
41220;DHT22;26951;47.338;9.196;2022-09-17T16:55:20;9.90;62.40
41220;DHT22;26951;47.338;9.196;2022-09-17T16:58:04;9.80;62.20
41220;DHT22;26951;47.338;9.196;2022-09-17T17:00:48;9.80;61.60
41220;DHT22;26951;47.338;9.196;2022-09-17T17:03:32;9.70;61.80
41220;DHT22;26951;47.338;9.196;2022-09-17T17:06:18;9.70;62.20
41220;DHT22;26951;47.338;9.196;2022-09-17T17:09:02;9.70;62.40
41220;DHT22;26951;47.338;9.196;2022-09-17T17:11:46;9.70;63.60
41220;DHT22;26951;47.338;9.196;2022-09-17T17:14:30;9.70;64.20
41220;DHT22;26951;47.338;9.196;2022-09-17T17:17:16;9.60;63.60
41220;DHT22;26951;47.338;9.196;2022-09-17T17:20:02;9.60;63.10
41220;DHT22;26951;47.338;9.196;2022-09-17T17:22:50;9.50;63.80
41220;DHT22;26951;47.338;9.196;2022-09-17T17:25:34;9.50;64.40
41220;DHT22;26951;47.338;9.196;2022-09-17T17:28:19;9.50;64.70
41220;DHT22;26951;47.338;9.196;2022-09-17T17:31:03;9.50;64.50
41220;DHT22;26951;47.338;9.196;2022-09-17T17:33:48;9.50;65.10
41220;DHT22;26951;47.338;9.196;2022-09-17T17:36:32;9.50;64.80
41220;DHT22;26951;47.338;9.196;2022-09-17T17:39:16;9.50;64.90
41220;DHT22;26951;47.338;9.196;2022-09-17T17:42:00;9.40;63.70
41220;DHT22;26951;47.338;9.196;2022-09-17T17:44:44;9.40;63.00
41220;DHT22;26951;47.338;9.196;2022-09-17T17:47:30;9.30;64.20
41220;DHT22;26951;47.338;9.196;2022-09-17T17:50:14;9.20;64.50
41220;DHT22;26951;47.338;9.196;2022-09-17T17:52:58;9.10;65.10
41220;DHT22;26951;47.338;9.196;2022-09-17T17:55:43;9.10;64.60
41220;DHT22;26951;47.338;9.196;2022-09-17T17:58:28;9.00;63.50
41220;DHT22;26951;47.338;9.196;2022-09-17T18:01:15;8.90;63.80
41220;DHT22;26951;47.338;9.196;2022-09-17T18:04:01;8.80;63.10
41220;DHT22;26951;47.338;9.196;2022-09-17T18:06:46;8.70;62.90
41220;DHT22;26951;47.338;9.196;2022-09-17T18:09:30;8.70;61.40
41220;DHT22;26951;47.338;9.196;2022-09-17T18:12:14;8.60;62.80
41220;DHT22;26951;47.338;9.196;2022-09-17T18:14:59;8.60;62.90
41220;DHT22;26951;47.338;9.196;2022-09-17T18:17:43;8.60;64.20
41220;DHT22;26951;47.338;9.196;2022-09-17T18:20:27;8.60;64.90
41220;DHT22;26951;47.338;9.196;2022-09-17T18:23:11;8.60;64.20
41220;DHT22;26951;47.338;9.196;2022-09-17T18:25:58;8.50;64.80
41220;DHT22;26951;47.338;9.196;2022-09-17T18:28:42;8.50;65.20
41220;DHT22;26951;47.338;9.196;2022-09-17T18:31:30;8.60;65.00
41220;DHT22;26951;47.338;9.196;2022-09-17T18:34:15;8.60;65.20
41220;DHT22;26951;47.338;9.196;2022-09-17T18:36:59;8.60;64.30
41220;DHT22;26951;47.338;9.196;2022-09-17T18:39:43;8.50;64.70
41220;DHT22;26951;47.338;9.196;2022-09-17T18:42:28;8.50;64.90
41220;DHT22;26951;47.338;9.196;2022-09-17T18:45:12;8.50;65.30
41220;DHT22;26951;47.338;9.196;2022-09-17T18:47:56;8.50;65.60
41220;DHT22;26951;47.338;9.196;2022-09-17T18:50:40;8.50;65.70
41220;DHT22;26951;47.338;9.196;2022-09-17T18:53:28;8.60;66.40
41220;DHT22;26951;47.338;9.196;2022-09-17T18:56:15;8.60;66.30
41220;DHT22;26951;47.338;9.196;2022-09-17T18:59:00;8.60;66.50
41220;DHT22;26951;47.338;9.196;2022-09-17T19:01:44;8.60;66.60
41220;DHT22;26951;47.338;9.196;2022-09-17T19:04:29;8.60;67.00
41220;DHT22;26951;47.338;9.196;2022-09-17T19:07:13;8.60;67.60
41220;DHT22;26951;47.338;9.196;2022-09-17T19:09:57;8.60;67.80
41220;DHT22;26951;47.338;9.196;2022-09-17T19:12:41;8.60;66.70
41220;DHT22;26951;47.338;9.196;2022-09-17T19:15:26;8.60;67.50
41220;DHT22;26951;47.338;9.196;2022-09-17T19:18:10;8.60;68.00
41220;DHT22;26951;47.338;9.196;2022-09-17T19:21:02;8.60;67.80
41220;DHT22;26951;47.338;9.196;2022-09-17T19:23:50;8.60;68.30
41220;DHT22;26951;47.338;9.196;2022-09-17T19:26:34;8.60;68.30
41220;DHT22;26951;47.338;9.196;2022-09-17T19:29:18;8.60;67.40
41220;DHT22;26951;47.338;9.196;2022-09-17T19:32:02;8.70;67.80
41220;DHT22;26951;47.338;9.196;2022-09-17T19:34:47;8.70;67.70
41220;DHT22;26951;47.338;9.196;2022-09-17T19:37:31;8.70;67.60
41220;DHT22;26951;47.338;9.196;2022-09-17T19:40:15;8.70;67.90
41220;DHT22;26951;47.338;9.196;2022-09-17T19:42:59;8.70;66.60
41220;DHT22;26951;47.338;9.196;2022-09-17T19:45:43;8.60;66.10
41220;DHT22;26951;47.338;9.196;2022-09-17T19:48:28;8.60;64.30
41220;DHT22;26951;47.338;9.196;2022-09-17T19:51:13;8.50;66.60
41220;DHT22;26951;47.338;9.196;2022-09-17T19:53:57;8.50;66.70
41220;DHT22;26951;47.338;9.196;2022-09-17T19:56:42;8.40;67.30
41220;DHT22;26951;47.338;9.196;2022-09-17T19:59:26;8.40;67.10
41220;DHT22;26951;47.338;9.196;2022-09-17T20:02:13;8.40;67.40
41220;DHT22;26951;47.338;9.196;2022-09-17T20:04:57;8.30;66.40
41220;DHT22;26951;47.338;9.196;2022-09-17T20:07:41;8.30;67.80
41220;DHT22;26951;47.338;9.196;2022-09-17T20:10:25;8.30;67.50
41220;DHT22;26951;47.338;9.196;2022-09-17T20:13:10;8.20;68.00
41220;DHT22;26951;47.338;9.196;2022-09-17T20:16:02;8.20;66.80
41220;DHT22;26951;47.338;9.196;2022-09-17T20:18:47;8.20;68.70
41220;DHT22;26951;47.338;9.196;2022-09-17T20:21:33;8.10;68.50
41220;DHT22;26951;47.338;9.196;2022-09-17T20:24:17;8.00;69.20
41220;DHT22;26951;47.338;9.196;2022-09-17T20:27:02;8.00;70.00
41220;DHT22;26951;47.338;9.196;2022-09-17T20:29:46;8.00;70.70